createdAt,value
2023-12-02T00:00:51.771Z,16.27
2023-12-02T00:03:19.380Z,14.63
2023-12-02T00:05:46.581Z,16.07
2023-12-02T00:08:13.739Z,16.27
2023-12-02T00:10:40.976Z,17.17
2023-12-02T00:13:07.825Z,15.77
2023-12-02T00:15:34.913Z,11.63
2023-12-02T00:18:01.899Z,13.20
2023-12-02T00:20:28.819Z,15.43
2023-12-02T00:22:55.822Z,9.93
2023-12-02T00:25:22.850Z,16.27
2023-12-02T00:27:50.609Z,21.20
2023-12-02T00:30:17.717Z,13.00
2023-12-02T00:32:44.712Z,13.67
2023-12-02T00:35:11.592Z,12.20
2023-12-02T00:37:38.482Z,13.10
2023-12-02T00:40:06.800Z,12.07
2023-12-02T00:42:33.774Z,13.00
2023-12-02T00:45:00.894Z,12.50
2023-12-02T00:47:28.494Z,13.77
2023-12-02T00:49:56.770Z,11.63
2023-12-02T00:52:24.320Z,13.77
2023-12-02T00:54:51.427Z,14.63
2023-12-02T00:57:18.290Z,11.93
2023-12-02T00:59:45.177Z,13.60
2023-12-02T01:02:12.366Z,12.80
2023-12-02T01:04:39.349Z,8.90
2023-12-02T01:07:37.406Z,12.17
2023-12-02T01:10:13.578Z,10.70
2023-12-02T01:12:47.031Z,10.33
2023-12-02T01:15:13.829Z,13.37
2023-12-02T01:17:40.651Z,12.40
2023-12-02T01:20:08.093Z,14.33
2023-12-02T01:22:34.849Z,11.93
2023-12-02T01:25:01.805Z,11.73
2023-12-02T01:27:28.843Z,11.77
2023-12-02T01:29:56.193Z,12.33
2023-12-02T01:32:22.951Z,14.30
2023-12-02T01:34:49.669Z,13.80
2023-12-02T01:37:16.383Z,14.37
2023-12-02T01:39:43.722Z,15.40
2023-12-02T01:42:10.487Z,13.93
2023-12-02T01:44:37.317Z,13.73
2023-12-02T01:47:05.173Z,14.73
2023-12-02T01:49:33.486Z,15.73
2023-12-02T01:52:00.726Z,13.87
2023-12-02T01:54:27.500Z,13.63
2023-12-02T01:56:54.753Z,15.80
2023-12-02T01:59:21.704Z,15.20
2023-12-02T02:01:48.510Z,12.93
2023-12-02T02:04:16.314Z,18.80
2023-12-02T02:06:45.305Z,15.23
2023-12-02T02:09:12.063Z,14.93
2023-12-02T02:11:38.784Z,16.33
2023-12-02T02:14:05.591Z,15.77
2023-12-02T02:16:32.365Z,14.90
2023-12-02T02:19:01.924Z,13.93
2023-12-02T02:21:31.465Z,19.83
2023-12-02T02:23:58.692Z,15.00
2023-12-02T02:26:25.487Z,15.00
2023-12-02T02:28:52.490Z,14.10
2023-12-02T02:31:19.271Z,15.83
2023-12-02T02:33:46.028Z,15.90
2023-12-02T02:36:12.840Z,13.70
2023-12-02T02:38:40.166Z,18.20
2023-12-02T02:41:07.162Z,13.50
2023-12-02T02:43:34.130Z,14.50
2023-12-02T02:46:00.956Z,14.13
2023-12-02T02:48:27.872Z,14.93
2023-12-02T02:50:54.670Z,18.40
2023-12-02T02:53:21.426Z,22.30
2023-12-02T02:55:48.652Z,16.13
2023-12-02T02:58:15.462Z,14.00
2023-12-02T03:00:42.265Z,14.30
2023-12-02T03:03:09.916Z,18.03
2023-12-02T03:05:37.300Z,14.03
2023-12-02T03:08:04.134Z,13.10
2023-12-02T03:10:31.254Z,15.17
2023-12-02T03:12:58.039Z,15.97
2023-12-02T03:15:27.522Z,13.00
2023-12-02T03:17:54.769Z,13.00
2023-12-02T03:20:21.711Z,14.83
2023-12-02T03:22:48.467Z,19.33
2023-12-02T03:25:16.120Z,17.33
2023-12-02T03:27:42.894Z,18.20
2023-12-02T03:30:10.178Z,17.73
2023-12-02T03:32:41.374Z,18.03
2023-12-02T03:35:09.264Z,13.00
2023-12-02T03:37:39.249Z,20.63
2023-12-02T03:40:07.324Z,13.33
2023-12-02T03:42:34.235Z,22.00
2023-12-02T03:45:04.119Z,17.47
2023-12-02T03:47:31.083Z,19.77
2023-12-02T03:49:58.019Z,18.70
2023-12-02T03:52:24.869Z,18.60
2023-12-02T03:54:51.679Z,24.17
2023-12-02T03:57:18.402Z,24.20
2023-12-02T03:59:45.152Z,18.03
2023-12-02T04:02:14.704Z,23.90
2023-12-02T04:04:42.326Z,24.60
2023-12-02T04:07:09.185Z,26.03
2023-12-02T04:09:36.022Z,23.53
2023-12-02T04:12:03.121Z,29.17
2023-12-02T04:14:29.852Z,26.37
2023-12-02T04:16:56.554Z,26.23
2023-12-02T04:19:23.719Z,26.27
2023-12-02T04:21:50.692Z,25.60
2023-12-02T04:24:17.528Z,24.13
2023-12-02T04:26:44.362Z,24.10
2023-12-02T04:29:11.086Z,25.37
2023-12-02T04:31:38.979Z,23.60
2023-12-02T04:34:05.986Z,25.00
2023-12-02T04:36:32.955Z,34.30
2023-12-02T04:38:59.808Z,24.10
2023-12-02T04:41:29.385Z,27.17
2023-12-02T04:43:56.295Z,21.87
2023-12-02T04:46:23.737Z,21.80
2023-12-02T04:48:50.744Z,22.93
2023-12-02T04:51:18.108Z,24.10
2023-12-02T04:53:46.070Z,24.00
2023-12-02T04:56:13.054Z,24.13
2023-12-02T04:58:40.487Z,22.30
2023-12-02T05:01:07.735Z,29.07
2023-12-02T05:03:35.357Z,23.93
2023-12-02T05:06:02.815Z,27.07
2023-12-02T05:08:29.735Z,25.57
2023-12-02T05:10:56.776Z,26.77
2023-12-02T05:13:23.758Z,24.10
2023-12-02T05:15:50.736Z,28.30
2023-12-02T05:18:18.237Z,23.07
2023-12-02T05:20:45.215Z,28.50
2023-12-02T05:23:12.118Z,23.07
2023-12-02T05:25:39.006Z,22.60
2023-12-02T05:28:06.257Z,26.63
2023-12-02T05:30:34.923Z,30.00
2023-12-02T05:33:03.868Z,25.67
2023-12-02T05:35:32.756Z,25.20
2023-12-02T05:38:00.180Z,22.43
2023-12-02T05:40:27.160Z,25.60
2023-12-02T05:42:54.129Z,22.87
2023-12-02T05:45:20.996Z,28.07
2023-12-02T05:47:48.150Z,22.50
2023-12-02T05:50:15.523Z,26.33
2023-12-02T05:52:42.376Z,23.33
2023-12-02T05:55:11.059Z,23.47
2023-12-02T05:57:38.508Z,23.50
2023-12-02T06:00:06.274Z,25.47
2023-12-02T06:02:34.129Z,24.83
2023-12-02T06:05:01.223Z,23.40
2023-12-02T06:07:28.170Z,24.50
2023-12-02T06:09:55.305Z,21.10
2023-12-02T06:12:22.461Z,23.17
2023-12-02T06:14:49.488Z,25.60
2023-12-02T06:17:16.628Z,18.23
2023-12-02T06:19:43.465Z,19.77
2023-12-02T06:22:10.343Z,27.57
2023-12-02T06:24:38.053Z,24.93
2023-12-02T06:27:05.521Z,22.40
2023-12-02T06:29:32.547Z,24.80
2023-12-02T06:31:59.929Z,21.53
2023-12-02T06:34:26.850Z,18.70
2023-12-02T06:36:53.716Z,22.33
2023-12-02T06:39:20.924Z,19.17
2023-12-02T06:41:47.863Z,24.00
2023-12-02T06:44:14.952Z,22.00
2023-12-02T06:46:41.869Z,23.50
2023-12-02T06:49:08.855Z,21.57
2023-12-02T06:51:35.736Z,19.00
2023-12-02T06:54:02.703Z,22.80
2023-12-02T06:56:29.796Z,21.50
2023-12-02T06:58:56.703Z,23.10
2023-12-02T07:01:28.994Z,23.73
2023-12-02T07:03:57.421Z,22.87
2023-12-02T07:06:25.410Z,22.90
2023-12-02T07:08:53.139Z,27.17
2023-12-02T07:11:25.737Z,19.47
2023-12-02T07:13:53.012Z,23.30
2023-12-02T07:16:21.677Z,26.10
2023-12-02T07:18:51.953Z,21.90
2023-12-02T07:21:19.452Z,24.90
2023-12-02T07:23:48.393Z,24.57
2023-12-02T07:26:16.033Z,21.90
2023-12-02T07:28:43.504Z,22.23
2023-12-02T07:31:16.707Z,26.03
2023-12-02T07:33:44.687Z,23.77
2023-12-02T07:36:12.445Z,21.13
2023-12-02T07:38:42.714Z,25.83
2023-12-02T07:41:10.901Z,22.70
2023-12-02T07:43:38.418Z,27.93
2023-12-02T07:46:05.725Z,31.53
2023-12-02T07:48:32.925Z,24.73
2023-12-02T07:50:59.840Z,34.73
2023-12-02T07:53:27.446Z,23.23
2023-12-02T07:56:07.707Z,28.27
2023-12-02T07:58:42.978Z,27.40
2023-12-02T08:01:10.475Z,24.40
2023-12-02T08:03:37.739Z,28.53
2023-12-02T08:06:05.963Z,25.80
2023-12-02T08:08:33.237Z,24.53
2023-12-02T08:11:01.861Z,25.30
2023-12-02T08:13:30.253Z,22.73
2023-12-02T08:15:57.237Z,25.80
2023-12-02T08:18:24.413Z,25.07
2023-12-02T08:20:51.620Z,21.03
2023-12-02T08:23:19.367Z,26.20
2023-12-02T08:25:46.791Z,26.37
2023-12-02T08:28:13.696Z,26.97
2023-12-02T08:30:40.861Z,24.63
2023-12-02T08:33:07.714Z,25.20
2023-12-02T08:35:35.798Z,28.00
2023-12-02T08:38:02.622Z,25.30
2023-12-02T08:40:29.910Z,31.83
2023-12-02T08:42:56.849Z,26.70
2023-12-02T08:45:23.634Z,32.03
2023-12-02T08:47:50.606Z,33.07
2023-12-02T08:50:17.753Z,30.10
2023-12-02T08:52:47.356Z,25.50
2023-12-02T08:55:18.851Z,31.30
2023-12-02T08:57:46.024Z,38.50
2023-12-02T09:00:13.699Z,38.33
2023-12-02T09:02:40.571Z,35.40
2023-12-02T09:05:07.916Z,32.87
2023-12-02T09:07:35.817Z,31.70
2023-12-02T09:10:15.153Z,31.03
2023-12-02T09:12:44.342Z,28.33
2023-12-02T09:15:18.096Z,32.70
2023-12-02T09:18:11.374Z,32.37
2023-12-02T09:20:53.055Z,30.70
2023-12-02T09:23:26.671Z,29.77
2023-12-02T09:25:56.437Z,31.70
2023-12-02T09:28:28.973Z,31.80
2023-12-02T09:31:10.706Z,35.00
2023-12-02T09:33:40.797Z,34.57
2023-12-02T09:36:27.808Z,29.83
2023-12-02T09:38:55.446Z,35.80
2023-12-02T09:41:32.833Z,29.00
2023-12-02T09:44:19.045Z,36.77
2023-12-02T09:47:11.978Z,28.93
2023-12-02T09:49:44.950Z,29.20
2023-12-02T09:52:26.481Z,30.73
2023-12-02T09:55:09.187Z,25.90
2023-12-02T09:57:58.428Z,27.37
2023-12-02T10:00:28.289Z,33.50
2023-12-02T10:03:26.129Z,31.90
2023-12-02T10:06:28.307Z,31.63
2023-12-02T10:09:01.376Z,30.20
2023-12-02T10:11:31.927Z,38.17
2023-12-02T10:14:13.852Z,26.30
2023-12-02T10:16:48.520Z,23.03
2023-12-02T10:19:47.554Z,31.43
2023-12-02T10:22:25.297Z,30.20
2023-12-02T10:25:00.577Z,29.63
2023-12-02T10:27:31.246Z,23.57
2023-12-02T10:30:13.806Z,27.70
2023-12-02T10:32:57.017Z,31.80
2023-12-02T10:35:31.682Z,25.67
2023-12-02T10:38:27.844Z,26.33
2023-12-02T10:41:17.865Z,24.83
2023-12-02T10:43:46.281Z,25.43
2023-12-02T10:46:14.299Z,28.17
2023-12-02T10:48:41.727Z,29.23
2023-12-02T10:51:17.326Z,27.17
2023-12-02T10:53:47.310Z,27.30
2023-12-02T10:56:23.110Z,29.30
2023-12-02T10:58:52.256Z,26.00
2023-12-02T11:01:50.340Z,27.17
2023-12-02T11:04:28.662Z,24.73
2023-12-02T11:07:04.440Z,29.70
2023-12-02T11:09:55.136Z,22.60
2023-12-02T11:12:50.193Z,23.57
2023-12-02T11:15:30.858Z,28.70
2023-12-02T11:18:26.286Z,26.50
2023-12-02T11:32:49.898Z,23.50
2023-12-02T11:35:52.068Z,28.70
2023-12-02T11:38:42.664Z,26.60
2023-12-02T11:41:37.478Z,26.20
2023-12-02T11:48:52.496Z,26.07
2023-12-02T11:51:59.095Z,29.37
2023-12-02T11:54:53.492Z,27.70
2023-12-02T11:58:07.516Z,28.70
2023-12-02T12:01:13.808Z,25.97
2023-12-02T12:11:27.321Z,27.53
2023-12-02T12:38:57.625Z,23.80
2023-12-02T12:42:26.310Z,30.80
2023-12-02T12:44:54.372Z,27.83
2023-12-02T12:47:26.137Z,23.10
2023-12-02T12:49:57.999Z,26.47
2023-12-02T12:52:40.083Z,23.10
2023-12-02T12:55:24.018Z,20.80
2023-12-02T12:58:16.106Z,28.97
2023-12-02T13:01:25.540Z,24.40
2023-12-02T13:04:15.333Z,29.73
2023-12-02T13:06:49.271Z,20.00
2023-12-02T13:09:21.784Z,25.53
2023-12-02T13:12:15.102Z,27.43
2023-12-02T13:14:51.455Z,26.37
2023-12-02T13:17:19.749Z,26.10
2023-12-02T13:19:52.867Z,23.90
2023-12-02T13:22:28.791Z,24.20
2023-12-02T13:25:18.023Z,27.13
2023-12-02T13:28:11.163Z,24.07
2023-12-02T13:43:05.748Z,23.30
2023-12-02T13:45:36.322Z,20.67
2023-12-02T13:48:10.470Z,23.50
2023-12-02T13:50:51.049Z,21.80
2023-12-02T13:53:42.676Z,28.50
2023-12-02T13:56:12.543Z,23.03
2023-12-02T13:58:48.204Z,26.87
2023-12-02T14:01:33.707Z,23.53
2023-12-02T14:04:31.964Z,24.60
2023-12-02T14:07:18.203Z,25.00
2023-12-02T14:09:46.553Z,21.30
2023-12-02T14:12:47.199Z,23.67
2023-12-02T14:15:48.665Z,23.00
2023-12-02T14:18:34.443Z,25.57
2023-12-02T14:21:04.517Z,24.73
2023-12-02T14:24:03.093Z,24.33
2023-12-02T14:26:52.497Z,23.80
2023-12-02T14:30:01.533Z,31.33
2023-12-02T14:33:12.458Z,28.47
2023-12-02T14:36:17.612Z,25.20
2023-12-02T14:39:06.095Z,28.30
2023-12-02T14:41:50.208Z,26.67
2023-12-02T14:44:31.968Z,22.63
2023-12-02T14:47:06.328Z,28.07
2023-12-02T14:49:43.503Z,25.03
2023-12-02T14:56:41.803Z,27.77
2023-12-02T14:59:11.119Z,31.03
2023-12-02T15:01:42.453Z,34.07
2023-12-02T15:04:10.537Z,33.90
2023-12-02T15:06:43.163Z,32.00
2023-12-02T15:09:27.002Z,28.03
2023-12-02T15:37:56.390Z,26.73
2023-12-02T15:40:24.189Z,29.63
2023-12-02T15:42:53.891Z,30.17
2023-12-02T15:45:23.950Z,32.03
2023-12-02T15:47:51.997Z,29.40
2023-12-02T15:50:20.258Z,33.00
2023-12-02T15:52:51.184Z,33.50
2023-12-02T15:55:23.563Z,38.43
2023-12-02T15:57:54.630Z,32.20
2023-12-02T16:00:25.972Z,27.80
2023-12-02T16:02:53.196Z,31.37
2023-12-02T16:05:21.295Z,34.13
2023-12-02T16:07:50.823Z,39.83
2023-12-02T16:10:18.371Z,30.13
2023-12-02T16:12:46.023Z,32.20
2023-12-02T16:15:13.495Z,29.03
2023-12-02T16:17:41.217Z,31.23
2023-12-02T16:20:09.663Z,26.93
2023-12-02T16:22:37.233Z,29.63
2023-12-02T16:25:07.155Z,30.60
2023-12-02T16:27:34.586Z,26.87
2023-12-02T16:30:02.009Z,29.73
2023-12-02T16:32:30.450Z,38.17
2023-12-02T16:34:58.487Z,28.33
2023-12-02T16:37:26.112Z,29.47
2023-12-02T16:39:53.348Z,37.40
2023-12-02T16:42:20.624Z,33.83
2023-12-02T16:44:48.377Z,32.37
2023-12-02T16:47:39.075Z,29.70
2023-12-02T16:50:20.365Z,43.70
2023-12-02T16:53:03.021Z,36.47
2023-12-02T16:55:38.036Z,48.13
2023-12-02T16:58:11.472Z,50.90
2023-12-02T17:00:41.137Z,58.67
2023-12-02T17:03:08.974Z,54.83
2023-12-02T17:05:37.907Z,48.40
2023-12-02T17:08:07.924Z,43.97
2023-12-02T17:10:44.283Z,55.90
2023-12-02T17:13:28.155Z,38.60
2023-12-02T17:15:56.380Z,40.73
2023-12-02T17:18:42.937Z,45.00
2023-12-02T17:21:22.911Z,39.93
2023-12-02T17:23:58.710Z,37.63
2023-12-02T17:26:29.107Z,46.90
2023-12-02T17:28:57.531Z,43.17
2023-12-02T17:31:25.576Z,40.10
2023-12-02T17:34:02.480Z,39.10
2023-12-02T17:36:29.863Z,44.40
2023-12-02T17:38:57.643Z,41.20
2023-12-02T17:41:24.972Z,37.13
2023-12-02T17:43:55.029Z,38.50
2023-12-02T17:46:25.949Z,33.33
2023-12-02T17:48:55.244Z,33.90
2023-12-02T17:51:23.321Z,50.80
2023-12-02T17:53:57.807Z,36.57
2023-12-02T18:14:46.712Z,30.73
2023-12-02T18:17:15.687Z,35.87
2023-12-02T18:19:43.677Z,34.00
2023-12-02T18:22:22.131Z,30.03
2023-12-02T18:24:52.407Z,32.47
2023-12-02T18:27:22.909Z,35.90
2023-12-02T18:29:53.340Z,32.07
2023-12-02T18:32:30.858Z,35.50
2023-12-02T18:35:00.013Z,33.73
2023-12-02T18:37:27.803Z,34.37
2023-12-02T18:39:55.558Z,35.67
2023-12-02T18:42:23.129Z,39.83
2023-12-02T18:44:50.678Z,32.83
2023-12-02T18:47:18.151Z,33.67
2023-12-02T18:49:45.914Z,36.93
2023-12-02T18:52:13.193Z,35.70
2023-12-02T18:54:40.567Z,40.20
2023-12-02T18:57:08.121Z,36.37
2023-12-02T18:59:36.749Z,35.43
2023-12-02T19:02:05.043Z,33.67
2023-12-02T19:04:32.335Z,36.20
2023-12-02T19:06:59.721Z,35.43
2023-12-02T19:09:27.445Z,37.87
2023-12-02T19:12:10.819Z,35.00
2023-12-02T19:14:39.298Z,34.97
2023-12-02T19:17:12.387Z,32.00
2023-12-02T19:19:40.601Z,37.53
2023-12-02T19:22:11.283Z,37.63
2023-12-02T19:24:38.844Z,36.87
2023-12-02T19:27:07.685Z,34.47
2023-12-02T19:29:35.887Z,31.97
2023-12-02T19:32:03.624Z,40.40
2023-12-02T19:34:31.060Z,39.53
2023-12-02T19:36:58.833Z,39.97
2023-12-02T19:39:26.083Z,34.27
2023-12-02T19:41:53.289Z,37.60
2023-12-02T19:44:20.880Z,38.33
2023-12-02T19:46:49.303Z,37.27
2023-12-02T19:49:16.471Z,37.70
2023-12-02T19:51:44.068Z,32.80
2023-12-02T19:54:11.698Z,33.93
2023-12-02T19:56:39.045Z,33.53
2023-12-02T19:59:06.614Z,39.00
2023-12-02T20:01:34.200Z,38.73
2023-12-02T20:04:02.049Z,34.97
2023-12-02T20:06:29.974Z,36.43
2023-12-02T20:08:57.316Z,41.47
2023-12-02T20:11:43.698Z,43.83
2023-12-02T20:14:11.941Z,41.83
2023-12-02T20:16:39.145Z,38.10
2023-12-02T20:19:06.896Z,38.10
2023-12-02T20:21:34.476Z,42.47
2023-12-02T20:24:05.057Z,39.33
2023-12-02T20:26:33.273Z,43.00
2023-12-02T20:29:01.625Z,37.77
2023-12-02T20:31:29.736Z,41.77
2023-12-02T20:33:57.611Z,45.10
2023-12-02T20:36:24.860Z,43.50
2023-12-02T20:38:52.194Z,40.53
2023-12-02T20:41:19.324Z,41.80
2023-12-02T20:43:47.031Z,43.00
2023-12-02T20:46:14.460Z,43.40
2023-12-02T20:48:43.281Z,42.80
2023-12-02T20:51:11.470Z,44.20
2023-12-02T20:53:39.131Z,40.90
2023-12-02T20:56:06.983Z,35.87
2023-12-02T20:58:34.238Z,42.47
2023-12-02T21:01:01.533Z,36.50
2023-12-02T21:03:29.068Z,44.00
2023-12-02T21:05:57.171Z,46.17
2023-12-02T21:08:25.851Z,43.20
2023-12-02T21:10:56.754Z,53.90
2023-12-02T21:13:23.937Z,45.57
2023-12-02T21:15:51.860Z,47.10
2023-12-02T21:18:19.335Z,45.20
2023-12-02T21:20:46.613Z,43.33
2023-12-02T21:23:14.773Z,38.47
2023-12-02T21:25:43.349Z,42.40
2023-12-02T21:28:11.144Z,41.43
2023-12-02T21:30:42.414Z,43.43
2023-12-02T21:33:15.951Z,39.70
2023-12-02T21:35:49.476Z,40.27
2023-12-02T21:38:39.770Z,37.03
2023-12-02T21:41:09.040Z,39.83
2023-12-02T21:43:36.399Z,37.27
2023-12-02T21:46:05.647Z,39.23
2023-12-02T21:48:45.052Z,40.93
2023-12-02T21:51:15.585Z,42.97
2023-12-02T21:53:43.208Z,32.33
2023-12-02T21:56:10.878Z,40.07
2023-12-02T21:58:38.238Z,37.70
2023-12-02T22:01:07.113Z,40.37
2023-12-02T22:03:39.233Z,35.87
2023-12-02T22:06:29.721Z,37.77
2023-12-02T22:08:58.952Z,34.80
2023-12-02T22:11:28.860Z,45.70
2023-12-02T22:13:56.088Z,39.33
2023-12-02T22:16:23.546Z,40.17
2023-12-02T22:18:50.797Z,41.10
2023-12-02T22:21:18.281Z,39.93
2023-12-02T22:23:45.547Z,44.37
2023-12-02T22:26:13.170Z,44.20
2023-12-02T22:28:44.541Z,49.47
2023-12-02T22:31:14.445Z,38.27
2023-12-02T22:33:42.693Z,40.70
2023-12-02T22:36:11.081Z,31.67
2023-12-02T22:38:39.234Z,38.00
2023-12-02T22:41:09.101Z,49.67
2023-12-02T22:43:48.352Z,33.10
2023-12-02T22:46:20.438Z,39.97
2023-12-02T22:48:49.973Z,38.30
2023-12-02T22:51:19.226Z,37.53
2023-12-02T22:53:46.830Z,39.40
2023-12-02T22:56:14.119Z,42.23
2023-12-02T22:58:44.521Z,48.00
2023-12-02T23:01:20.127Z,42.47
2023-12-02T23:03:47.594Z,39.37
2023-12-02T23:06:15.803Z,42.10
2023-12-02T23:08:43.108Z,43.37
2023-12-02T23:11:25.386Z,35.73
2023-12-02T23:13:52.986Z,39.93
2023-12-02T23:16:37.651Z,37.70
2023-12-02T23:19:05.786Z,38.57
2023-12-02T23:21:33.170Z,41.70
2023-12-02T23:24:02.631Z,41.47
2023-12-02T23:26:30.156Z,40.57
2023-12-02T23:28:57.335Z,38.27
2023-12-02T23:31:24.703Z,35.33
2023-12-02T23:33:52.147Z,37.60
2023-12-02T23:36:21.151Z,38.80
2023-12-02T23:38:50.915Z,36.20
2023-12-02T23:41:18.255Z,45.90
2023-12-02T23:43:45.517Z,46.87
2023-12-02T23:46:12.950Z,40.70
2023-12-02T23:48:40.736Z,41.10
2023-12-02T23:51:09.182Z,37.67
2023-12-02T23:53:36.512Z,43.53
2023-12-02T23:56:04.254Z,44.57
2023-12-02T23:58:36.260Z,42.93
